Time,TemperatureF,DewpointF,PressureIn,WindDirection,WindDirectionDegrees,WindSpeedMPH,WindSpeedGustMPH,Humidity,HourlyPrecipIn,Conditions,Clouds,dailyrainin,SolarRadiationWatts/m^2,SoftwareType,DateUTC
2013-06-05 00:22:00,64.0,48.0,-100.00,SW,216,22.0,29.0,56,0.00,,,0.00,0.000000,,2013-06-05 07:22:00,
2013-06-05 00:32:00,64.0,48.0,-100.00,SW,216,22.0,29.0,56,0.00,,,0.00,0.000000,,2013-06-05 07:32:00,
2013-06-05 00:42:00,64.0,48.0,-100.00,SW,216,22.0,29.0,56,0.00,,,0.00,0.000000,,2013-06-05 07:42:00,
2013-06-05 00:52:00,64.0,48.0,-100.00,SW,216,22.0,29.0,56,0.00,,,0.00,0.000000,,2013-06-05 07:52:00,
2013-06-05 01:22:00,66.0,43.0,-100.00,SW,220,22.0,33.0,44,0.00,,,0.00,0.000000,,2013-06-05 08:22:00,
2013-06-05 01:32:00,66.0,43.0,-100.00,SW,220,22.0,33.0,44,0.00,,,0.00,0.000000,,2013-06-05 08:32:00,
2013-06-05 01:42:00,66.0,43.0,-100.00,SW,220,22.0,33.0,44,0.00,,,0.00,0.000000,,2013-06-05 08:42:00,
2013-06-05 01:52:00,66.0,43.0,-100.00,SW,220,22.0,33.0,44,0.00,,,0.00,0.000000,,2013-06-05 08:52:00,
2013-06-05 02:22:00,66.0,41.0,-100.00,SW,227,21.0,37.0,40,0.00,,,0.00,0.000000,,2013-06-05 09:22:00,
2013-06-05 02:32:00,66.0,41.0,-100.00,SW,227,21.0,37.0,40,0.00,,,0.00,0.000000,,2013-06-05 09:32:00,
2013-06-05 02:42:00,66.0,41.0,-100.00,SW,227,21.0,37.0,40,0.00,,,0.00,0.000000,,2013-06-05 09:42:00,
2013-06-05 02:52:00,66.0,41.0,-100.00,SW,227,21.0,37.0,40,0.00,,,0.00,0.000000,,2013-06-05 09:52:00,
2013-06-05 03:22:00,65.0,36.0,-100.00,SW,221,21.0,30.0,34,0.00,,,-99.99,0.000000,,2013-06-05 10:22:00,
2013-06-05 03:33:00,65.0,36.0,-100.00,SW,221,21.0,30.0,34,0.00,,,-99.99,0.000000,,2013-06-05 10:33:00,
2013-06-05 03:42:00,65.0,36.0,-100.00,SW,221,21.0,30.0,34,0.00,,,-99.99,0.000000,,2013-06-05 10:42:00,
2013-06-05 03:52:00,65.0,36.0,-100.00,SW,221,21.0,30.0,34,0.00,,,-99.99,0.000000,,2013-06-05 10:52:00,
2013-06-05 04:22:00,67.0,41.0,-100.00,SW,226,15.0,30.0,39,0.00,,,0.00,0.000000,,2013-06-05 11:22:00,
2013-06-05 04:32:00,67.0,41.0,-100.00,SW,226,15.0,30.0,39,0.00,,,0.00,0.000000,,2013-06-05 11:32:00,
2013-06-05 04:42:00,67.0,41.0,-100.00,SW,226,15.0,30.0,39,0.00,,,0.00,0.000000,,2013-06-05 11:42:00,
2013-06-05 04:52:00,67.0,41.0,-100.00,SW,226,15.0,30.0,39,0.00,,,0.00,0.000000,,2013-06-05 11:52:00,
2013-06-05 05:22:00,66.0,40.0,-100.00,SW,224,12.0,29.0,39,0.00,,,0.00,0.000000,,2013-06-05 12:22:00,
2013-06-05 05:32:00,66.0,40.0,-100.00,SW,224,12.0,29.0,39,0.00,,,0.00,0.000000,,2013-06-05 12:32:00,
2013-06-05 05:43:00,66.0,40.0,-100.00,SW,224,12.0,29.0,39,0.00,,,0.00,0.000000,,2013-06-05 12:43:00,
2013-06-05 05:52:00,66.0,40.0,-100.00,SW,224,12.0,29.0,39,0.00,,,0.00,0.000000,,2013-06-05 12:52:00,
2013-06-05 06:22:00,63.0,37.0,-100.00,SW,227,11.0,26.0,38,0.00,,,0.00,2.000000,,2013-06-05 13:22:00,
2013-06-05 06:32:00,63.0,37.0,-100.00,SW,227,11.0,26.0,38,0.00,,,0.00,2.000000,,2013-06-05 13:32:00,
2013-06-05 06:42:00,63.0,37.0,-100.00,SW,227,11.0,26.0,38,0.00,,,0.00,2.000000,,2013-06-05 13:42:00,
2013-06-05 06:52:00,63.0,37.0,-100.00,SW,227,11.0,26.0,38,0.00,,,0.00,2.000000,,2013-06-05 13:52:00,
2013-06-05 07:22:00,71.0,43.0,-100.00,SW,226,10.0,18.0,36,0.00,,,0.00,94.000000,,2013-06-05 14:22:00,
2013-06-05 07:32:00,71.0,43.0,-100.00,SW,226,10.0,18.0,36,0.00,,,0.00,94.000000,,2013-06-05 14:32:00,
2013-06-05 07:42:00,71.0,43.0,-100.00,SW,226,10.0,18.0,36,0.00,,,0.00,94.000000,,2013-06-05 14:42:00,
2013-06-05 07:52:00,71.0,43.0,-100.00,SW,226,10.0,18.0,36,0.00,,,0.00,94.000000,,2013-06-05 14:52:00,
2013-06-05 09:22:00,87.0,45.0,29.97,ENE,74,3.0,15.0,23,-99.99,,,0.00,542.000000,,2013-06-05 16:22:00,
2013-06-05 10:22:00,93.0,43.0,29.97,SSE,147,3.0,10.0,18,-99.99,,,0.00,752.000000,,2013-06-05 17:22:00,
2013-06-05 11:22:00,92.0,42.0,29.97,SSW,205,8.0,33.0,18,-99.99,,,0.00,928.000000,,2013-06-05 18:22:00,
2013-06-05 11:32:00,92.0,42.0,29.97,SSW,205,8.0,33.0,18,-99.99,,,0.00,928.000000,,2013-06-05 18:32:00,
2013-06-05 11:42:00,92.0,42.0,29.97,SSW,205,8.0,33.0,18,-99.99,,,0.00,928.000000,,2013-06-05 18:42:00,
2013-06-05 11:52:00,92.0,42.0,29.97,SSW,205,8.0,33.0,18,-99.99,,,0.00,928.000000,,2013-06-05 18:52:00,
2013-06-05 12:23:00,95.0,40.0,29.95,SSE,158,8.0,15.0,15,0.00,,,0.00,1052.000000,,2013-06-05 19:23:00,
2013-06-05 12:32:00,95.0,40.0,29.95,SSE,158,8.0,15.0,15,0.00,,,0.00,1052.000000,,2013-06-05 19:32:00,
2013-06-05 12:42:00,95.0,40.0,29.95,SSE,158,8.0,15.0,15,0.00,,,0.00,1052.000000,,2013-06-05 19:42:00,
2013-06-05 12:52:00,95.0,40.0,29.95,SSE,158,8.0,15.0,15,0.00,,,0.00,1052.000000,,2013-06-05 19:52:00,
2013-06-05 13:22:00,94.0,39.0,29.95,SSW,206,15.0,21.0,15,0.00,,,0.00,1118.000000,,2013-06-05 20:22:00,
2013-06-05 13:32:00,94.0,39.0,29.95,SSW,206,15.0,21.0,15,0.00,,,0.00,1118.000000,,2013-06-05 20:32:00,
2013-06-05 13:42:00,94.0,39.0,29.95,SSW,206,15.0,21.0,15,0.00,,,0.00,1118.000000,,2013-06-05 20:42:00,
2013-06-05 13:52:00,94.0,39.0,29.95,SSW,206,15.0,21.0,15,0.00,,,0.00,1118.000000,,2013-06-05 20:52:00,
2013-06-05 14:22:00,94.0,38.0,29.94,SW,218,20.0,24.0,14,0.00,,,0.00,1117.000000,,2013-06-05 21:22:00,
2013-06-05 14:33:00,94.0,38.0,29.94,SW,218,20.0,24.0,14,0.00,,,0.00,1117.000000,,2013-06-05 21:33:00,
2013-06-05 14:43:00,94.0,38.0,29.94,SW,218,20.0,24.0,14,0.00,,,0.00,1117.000000,,2013-06-05 21:43:00,
2013-06-05 14:53:00,94.0,38.0,29.94,SW,218,20.0,24.0,14,0.00,,,0.00,1117.000000,,2013-06-05 21:53:00,
2013-06-05 15:22:00,92.0,41.0,29.93,SW,218,24.0,31.0,17,0.00,,,0.00,1060.000000,,2013-06-05 22:22:00,
2013-06-05 15:32:00,92.0,41.0,29.93,SW,218,24.0,31.0,17,0.00,,,0.00,1060.000000,,2013-06-05 22:32:00,
2013-06-05 15:42:00,92.0,41.0,29.93,SW,218,24.0,31.0,17,0.00,,,0.00,1060.000000,,2013-06-05 22:42:00,
2013-06-05 15:52:00,92.0,41.0,29.93,SW,218,24.0,31.0,17,0.00,,,0.00,1060.000000,,2013-06-05 22:52:00,
2013-06-05 16:22:00,91.0,40.0,29.91,SW,214,23.0,33.0,17,0.00,,,0.00,938.000000,,2013-06-05 23:22:00,
2013-06-05 16:32:00,91.0,40.0,29.91,SW,214,23.0,33.0,17,0.00,,,0.00,938.000000,,2013-06-05 23:32:00,
2013-06-05 16:42:00,91.0,40.0,29.91,SW,214,23.0,33.0,17,0.00,,,0.00,938.000000,,2013-06-05 23:42:00,
2013-06-05 16:53:00,91.0,40.0,29.91,SW,214,23.0,33.0,17,0.00,,,0.00,938.000000,,2013-06-05 23:53:00,
2013-06-05 17:22:00,89.0,40.0,29.90,SW,216,24.0,35.0,18,0.00,,,0.00,759.000000,,2013-06-06 00:22:00,
2013-06-05 17:32:00,89.0,40.0,29.90,SW,216,24.0,35.0,18,0.00,,,0.00,759.000000,,2013-06-06 00:32:00,
2013-06-05 17:42:00,89.0,40.0,29.90,SW,216,24.0,35.0,18,0.00,,,0.00,759.000000,,2013-06-06 00:42:00,
2013-06-05 17:52:00,89.0,40.0,29.90,SW,216,24.0,35.0,18,0.00,,,0.00,759.000000,,2013-06-06 00:52:00,
2013-06-05 18:22:00,85.0,41.0,-100.00,SW,222,27.0,38.0,21,0.00,,,0.00,544.000000,,2013-06-06 01:22:00,
2013-06-05 18:32:00,85.0,41.0,-100.00,SW,222,27.0,38.0,21,0.00,,,0.00,544.000000,,2013-06-06 01:32:00,
2013-06-05 18:42:00,85.0,41.0,-100.00,SW,222,27.0,38.0,21,0.00,,,0.00,544.000000,,2013-06-06 01:42:00,
2013-06-05 18:52:00,85.0,41.0,-100.00,SW,222,27.0,38.0,21,0.00,,,0.00,544.000000,,2013-06-06 01:52:00,
2013-06-05 19:22:00,83.0,42.0,29.91,SW,230,22.0,40.0,24,0.00,,,0.00,313.000000,,2013-06-06 02:22:00,
2013-06-05 19:32:00,83.0,42.0,29.91,SW,230,22.0,40.0,24,0.00,,,0.00,313.000000,,2013-06-06 02:32:00,
2013-06-05 19:42:00,83.0,42.0,29.91,SW,230,22.0,40.0,24,0.00,,,0.00,313.000000,,2013-06-06 02:42:00,
2013-06-05 19:52:00,83.0,42.0,29.91,SW,230,22.0,40.0,24,0.00,,,0.00,313.000000,,2013-06-06 02:52:00,
2013-06-05 20:22:00,75.0,44.0,29.92,SW,222,19.0,36.0,33,0.00,,,0.00,67.000000,,2013-06-06 03:22:00,
2013-06-05 20:33:00,75.0,44.0,29.92,SW,222,19.0,36.0,33,0.00,,,0.00,67.000000,,2013-06-06 03:33:00,
2013-06-05 20:43:00,75.0,44.0,29.92,SW,222,19.0,36.0,33,0.00,,,0.00,67.000000,,2013-06-06 03:43:00,
2013-06-05 20:52:00,75.0,44.0,29.92,SW,222,19.0,36.0,33,0.00,,,0.00,67.000000,,2013-06-06 03:52:00,
2013-06-05 21:23:00,74.0,45.0,-100.00,SW,232,15.0,28.0,35,0.00,,,0.00,1.000000,,2013-06-06 04:23:00,
2013-06-05 21:33:00,74.0,45.0,-100.00,SW,232,15.0,28.0,35,0.00,,,0.00,1.000000,,2013-06-06 04:33:00,
2013-06-05 21:42:00,74.0,45.0,-100.00,SW,232,15.0,28.0,35,0.00,,,0.00,1.000000,,2013-06-06 04:42:00,
2013-06-05 21:52:00,74.0,45.0,-100.00,SW,232,15.0,28.0,35,0.00,,,0.00,1.000000,,2013-06-06 04:52:00,
2013-06-05 22:22:00,72.0,48.0,-100.00,SW,228,15.0,25.0,43,0.00,,,0.00,0.000000,,2013-06-06 05:22:00,
2013-06-05 22:32:00,72.0,48.0,-100.00,SW,228,15.0,25.0,43,0.00,,,0.00,0.000000,,2013-06-06 05:32:00,
2013-06-05 22:42:00,72.0,48.0,-100.00,SW,228,15.0,25.0,43,0.00,,,0.00,0.000000,,2013-06-06 05:42:00,
2013-06-05 22:52:00,72.0,48.0,-100.00,SW,228,15.0,25.0,43,0.00,,,0.00,0.000000,,2013-06-06 05:52:00,
2013-06-05 23:22:00,72.0,48.0,-100.00,SW,232,16.0,25.0,43,0.00,,,-99.99,0.000000,,2013-06-06 06:22:00,
2013-06-05 23:32:00,72.0,48.0,-100.00,SW,232,16.0,25.0,43,0.00,,,-99.99,0.000000,,2013-06-06 06:32:00,
2013-06-05 23:42:00,72.0,48.0,-100.00,SW,232,16.0,25.0,43,0.00,,,-99.99,0.000000,,2013-06-06 06:42:00,
2013-06-05 23:52:00,72.0,48.0,-100.00,SW,232,16.0,25.0,43,0.00,,,-99.99,0.000000,,2013-06-06 06:52:00,